Lund, Texas
Current Conditions -  °F | °C
As of 8:35 PM on Sunday 23 Nov 2014 (Local Time) from KEDC Reporting Station
Broken Clouds Broken Clouds  
Wind Chill: 64°   Ceiling: 4300
Heat Index: 64°   Visibility: 10mi
Dew Point: 41°   Wind: 7mph
Humidity: 42%   Direction: 290°WNW
Pressure: 29.67"   Gusts: NA
Location:  30.2988°N, 97.3874°W
Report Text: KEDC 240235Z AUTO 29006KT 10SM FEW020 SCT033 BKN043 18/05 A2967 RMK AO2
Loading
Personal Weather Stations






























Interactive Weather Map New forecast layout! Learn more

10-Day Weather Forecast

Advertisements
Track Severe Weather on mobile